Time;durP1;ratioP1;P1;durP2;ratioP2;P2;SDS_P1;SDS_P2;PMS_P1;PMS_P2;Temp;Humidity;BMP_temperature;BMP_pressure;BME280_temperature;BME280_humidity;BME280_pressure;Samples;Min_cycle;Max_cycle;Signal;HPM_P1;HPM_P2
2023/05/05 00:00:52;;;;;;;7.15;2.65;;;11.10;99.90;;;;;;5055816;28;20435;-44
2023/05/05 00:03:23;;;;;;;7.05;2.80;;;11.00;99.90;;;;;;5054430;28;20064;-45
2023/05/05 00:05:50;;;;;;;6.82;2.55;;;11.00;99.90;;;;;;5055920;28;20052;-44
2023/05/05 00:08:16;;;;;;;;;;;11.00;99.90;;;;;;5055906;28;20045;-44
2023/05/05 00:10:44;;;;;;;8.90;3.00;;;11.00;99.90;;;;;;5055599;28;20015;-45
2023/05/05 00:13:10;;;;;;;5.50;2.42;;;10.90;99.90;;;;;;5055565;28;20423;-44
2023/05/05 00:15:37;;;;;;;7.25;2.65;;;10.90;99.90;;;;;;5054419;28;20051;-45
2023/05/05 00:18:03;;;;;;;5.70;2.53;;;10.90;99.90;;;;;;5055475;28;20132;-44
2023/05/05 00:20:29;;;;;;;;;;;10.80;99.90;;;;;;5055881;28;20049;-45
2023/05/05 00:22:55;;;;;;;7.40;2.78;;;10.80;99.90;;;;;;5055350;28;19975;-45
2023/05/05 00:25:21;;;;;;;4.73;2.20;;;10.80;99.90;;;;;;5055406;28;20053;-44
2023/05/05 00:27:47;;;;;;;7.73;2.90;;;10.70;99.90;;;;;;5055213;28;20053;-45
2023/05/05 00:30:12;;;;;;;4.97;2.60;;;10.70;99.90;;;;;;5055294;28;20045;-45
2023/05/05 00:32:38;;;;;;;5.83;2.63;;;10.70;99.90;;;;;;5053918;28;20049;-45
2023/05/05 00:35:05;;;;;;;7.00;2.83;;;10.60;99.90;;;;;;5054927;28;20515;-44
2023/05/05 00:37:31;;;;;;;8.02;2.90;;;10.60;99.90;;;;;;5053988;28;20057;-45
2023/05/05 00:39:57;;;;;;;6.70;2.87;;;10.60;99.90;;;;;;5054868;28;20045;-48
2023/05/05 00:42:23;;;;;;;7.95;3.13;;;10.50;99.90;;;;;;5054019;28;20106;-44
2023/05/05 00:44:49;;;;;;;6.00;2.47;;;10.50;99.90;;;;;;5053940;28;20123;-44
2023/05/05 00:47:16;;;;;;;6.43;2.67;;;10.50;99.90;;;;;;5054658;28;20040;-46
2023/05/05 00:49:41;;;;;;;;;;;10.50;99.90;;;;;;5055408;28;20045;-44
2023/05/05 00:52:08;;;;;;;6.05;2.75;;;10.50;99.90;;;;;;5054852;28;20275;-45
2023/05/05 00:54:35;;;;;;;5.15;2.80;;;10.50;99.90;;;;;;5054722;28;20045;-45
2023/05/05 00:57:01;;;;;;;6.30;2.53;;;10.40;99.90;;;;;;5054707;28;20048;-44
2023/05/05 00:59:32;;;;;;;5.28;2.55;;;10.40;99.90;;;;;;5053494;28;20480;-44
2023/05/05 01:01:58;;;;;;;6.03;2.75;;;10.40;99.90;;;;;;5053721;28;20044;-44
2023/05/05 01:04:28;;;;;;;7.57;2.63;;;10.40;99.90;;;;;;5053025;28;20048;-44
2023/05/05 01:07:02;;;;;;;8.27;2.78;;;10.40;99.90;;;;;;5054439;28;20132;-44
2023/05/05 01:09:41;;;;;;;6.95;2.58;;;10.40;99.90;;;;;;5053189;28;20061;-44
2023/05/05 01:12:18;;;;;;;7.22;3.17;;;10.30;99.90;;;;;;5053260;28;20098;-44
2023/05/05 01:14:51;;;;;;;6.70;2.60;;;10.30;99.90;;;;;;5053605;28;20049;-44
2023/05/05 01:17:20;;;;;;;4.93;2.83;;;10.30;99.90;;;;;;5054169;28;20476;-44
2023/05/05 01:19:55;;;;;;;7.43;3.10;;;10.30;99.90;;;;;;5054037;28;20364;-44
2023/05/05 01:22:27;;;;;;;7.05;3.10;;;10.30;99.90;;;;;;5054343;28;20049;-45
2023/05/05 01:25:05;;;;;;;6.10;2.83;;;10.20;99.90;;;;;;5053552;28;20049;-44
2023/05/05 01:28:02;;;;;;;6.20;2.22;;;10.20;99.90;;;;;;5054151;28;20484;-45
2023/05/05 01:30:43;;;;;;;7.82;3.17;;;10.20;99.90;;;;;;5054201;28;20101;-44
2023/05/05 01:33:13;;;;;;;5.55;2.72;;;10.20;99.90;;;;;;5054053;28;20081;-44
2023/05/05 01:35:49;;;;;;;6.38;2.50;;;10.20;99.90;;;;;;5053000;28;20044;-45
2023/05/05 01:38:30;;;;;;;5.88;2.58;;;10.10;99.90;;;;;;5053924;28;20106;-44
2023/05/05 01:41:08;;;;;;;6.25;2.90;;;10.10;99.90;;;;;;5054073;28;20388;-45
2023/05/05 01:43:35;;;;;;;6.47;2.80;;;10.20;99.90;;;;;;5053616;28;20045;-46
2023/05/05 01:46:02;;;;;;;8.38;2.13;;;10.10;99.90;;;;;;5053836;28;20396;-45
2023/05/05 01:48:32;;;;;;;;;;;10.10;99.90;;;;;;5054193;28;20132;-45
2023/05/05 01:51:00;;;;;;;5.82;2.30;;;10.10;99.90;;;;;;5052901;28;19968;-45
2023/05/05 01:53:27;;;;;;;5.95;3.13;;;10.10;99.90;;;;;;5053629;28;20120;-45
2023/05/05 01:55:54;;;;;;;6.20;2.88;;;10.10;99.90;;;;;;5053504;28;20049;-45
2023/05/05 01:58:21;;;;;;;5.55;2.50;;;10.10;99.90;;;;;;5053703;28;20052;-45
2023/05/05 02:00:48;;;;;;;7.53;2.83;;;10.10;99.90;;;;;;5053749;28;20052;-45
2023/05/05 02:03:16;;;;;;;6.50;2.80;;;10.10;99.90;;;;;;5053718;28;20061;-45
2023/05/05 02:05:43;;;;;;;6.65;2.45;;;10.10;99.90;;;;;;5053664;28;20064;-44
2023/05/05 02:08:10;;;;;;;6.40;2.60;;;10.10;99.90;;;;;;5052404;28;20041;-45
2023/05/05 02:10:39;;;;;;;6.15;2.92;;;10.10;99.90;;;;;;5053415;28;20052;-45
2023/05/05 02:13:06;;;;;;;5.28;2.70;;;10.10;99.90;;;;;;5053523;28;20156;-44
2023/05/05 02:15:34;;;;;;;5.43;2.55;;;10.10;99.90;;;;;;5053383;28;20118;-44
2023/05/05 02:18:00;;;;;;;5.38;2.30;;;10.10;99.90;;;;;;5053841;28;20404;-44
2023/05/05 02:20:29;;;;;;;5.57;2.47;;;10.10;99.90;;;;;;5053515;28;20484;-45
2023/05/05 02:22:54;;;;;;;8.43;2.70;;;10.10;99.90;;;;;;5057147;28;20049;-44
2023/05/05 02:25:21;;;;;;;6.23;3.00;;;10.00;99.90;;;;;;5057578;28;20056;-45
2023/05/05 02:27:48;;;;;;;6.28;2.70;;;10.10;99.90;;;;;;5057679;28;20067;-44
2023/05/05 02:30:18;;;;;;;5.43;2.70;;;10.10;99.90;;;;;;5057478;28;20477;-45
2023/05/05 02:32:53;;;;;;;6.20;2.38;;;10.10;99.90;;;;;;5057475;28;20055;-45
2023/05/05 02:35:23;;;;;;;6.38;2.50;;;10.10;99.90;;;;;;5057464;28;20041;-45
2023/05/05 02:38:01;;;;;;;6.47;2.53;;;10.10;99.90;;;;;;5057291;28;20041;-45
2023/05/05 02:40:30;;;;;;;5.65;2.58;;;10.10;99.90;;;;;;5057398;28;20096;-44
2023/05/05 02:42:59;;;;;;;6.05;2.50;;;10.10;99.90;;;;;;5056221;28;20052;-45
2023/05/05 02:45:27;;;;;;;7.10;2.42;;;10.10;99.90;;;;;;5056324;28;20037;-44
2023/05/05 02:47:53;;;;;;;4.70;2.42;;;10.10;99.90;;;;;;5057010;28;20092;-45
2023/05/05 02:50:19;;;;;;;5.70;2.40;;;10.10;99.90;;;;;;5057115;28;20081;-45
2023/05/05 02:52:46;;;;;;;5.85;2.13;;;10.10;99.90;;;;;;5057052;28;20095;-45
2023/05/05 02:55:12;;;;;;;6.15;3.00;;;10.10;99.90;;;;;;5057103;28;20136;-45
2023/05/05 02:57:52;;;;;;;4.47;2.20;;;10.10;99.90;;;;;;5057351;28;20123;-45
2023/05/05 03:00:39;;;;;;;4.47;2.15;;;10.10;99.90;;;;;;5056849;28;20126;-45
2023/05/05 03:03:17;;;;;;;6.18;2.45;;;10.10;99.90;;;;;;5056634;28;20053;-45
2023/05/05 03:05:59;;;;;;;5.82;2.20;;;10.10;99.90;;;;;;5055889;28;20060;-45
2023/05/05 03:08:48;;;;;;;6.00;2.35;;;10.10;99.90;;;;;;5056873;28;20052;-44
2023/05/05 03:11:23;;;;;;;7.90;2.53;;;10.00;99.90;;;;;;5056573;28;20045;-45
2023/05/05 03:13:52;;;;;;;5.75;2.45;;;10.00;99.90;;;;;;5056726;28;20049;-45
2023/05/05 03:16:20;;;;;;;6.00;2.45;;;10.00;99.90;;;;;;5055344;28;20464;-45
2023/05/05 03:18:49;;;;;;;6.05;2.17;;;10.00;99.90;;;;;;5056696;28;20041;-45
2023/05/05 03:21:15;;;;;;;5.53;2.40;;;10.00;99.90;;;;;;5056371;28;20095;-47
2023/05/05 03:23:41;;;;;;;5.93;2.20;;;10.00;99.90;;;;;;5055084;28;20404;-45
2023/05/05 03:26:07;;;;;;;6.18;2.45;;;10.00;99.90;;;;;;5056507;28;20075;-44
2023/05/05 03:28:32;;;;;;;5.60;2.17;;;10.00;99.90;;;;;;5056291;28;20128;-44
2023/05/05 03:30:58;;;;;;;4.47;2.20;;;9.90;99.90;;;;;;5056501;28;20092;-44
2023/05/05 03:33:24;;;;;;;4.53;2.60;;;9.90;99.90;;;;;;5055047;28;20475;-44
2023/05/05 03:35:49;;;;;;;5.73;2.13;;;9.90;99.90;;;;;;5056087;28;20045;-44
2023/05/05 03:38:15;;;;;;;7.27;2.67;;;9.90;99.90;;;;;;5056049;28;20127;-44
2023/05/05 03:40:41;;;;;;;5.83;2.40;;;9.80;99.90;;;;;;5056211;28;20056;-45
2023/05/05 03:43:06;;;;;;;5.50;2.30;;;9.80;99.90;;;;;;5056177;28;20506;-44
2023/05/05 03:45:32;;;;;;;8.50;2.70;;;9.80;99.90;;;;;;5055086;28;20143;-44
2023/05/05 03:47:58;;;;;;;4.87;2.43;;;9.80;99.90;;;;;;5056018;28;20314;-45
2023/05/05 03:50:23;;;;;;;6.63;2.30;;;9.80;99.90;;;;;;5056082;28;20068;-45
2023/05/05 03:52:49;;;;;;;5.57;2.53;;;9.80;99.90;;;;;;5055734;28;20045;-44
2023/05/05 03:55:15;;;;;;;6.53;2.67;;;9.80;99.90;;;;;;5055587;28;20053;-45
2023/05/05 03:57:40;;;;;;;5.63;2.43;;;9.80;99.90;;;;;;5055114;28;20048;-45
2023/05/05 04:00:09;;;;;;;6.87;2.47;;;9.80;99.90;;;;;;5038249;28;20057;-44
2023/05/05 04:02:35;;;;;;;6.20;3.00;;;9.80;99.90;;;;;;5054605;28;20053;-44
2023/05/05 04:05:01;;;;;;;5.25;2.80;;;9.80;99.90;;;;;;5055710;28;20512;-44
2023/05/05 04:07:26;;;;;;;7.57;2.83;;;9.80;99.90;;;;;;5055441;28;20552;-45
2023/05/05 04:09:52;;;;;;;6.37;2.53;;;9.80;99.90;;;;;;5054762;28;20447;-45
2023/05/05 04:12:18;;;;;;;5.97;2.47;;;9.80;99.90;;;;;;5055560;28;20083;-44
2023/05/05 04:14:43;;;;;;;6.60;2.43;;;9.80;99.90;;;;;;5055607;28;20057;-44
2023/05/05 04:17:09;;;;;;;6.83;2.53;;;9.90;99.90;;;;;;5054628;28;20045;-45
2023/05/05 04:19:35;;;;;;;4.83;2.33;;;9.90;99.90;;;;;;5055548;28;20041;-44
2023/05/05 04:22:00;;;;;;;5.20;2.67;;;10.00;99.90;;;;;;5055132;28;20045;-44
2023/05/05 04:24:26;;;;;;;5.53;2.30;;;10.00;99.90;;;;;;5055351;28;20052;-44
2023/05/05 04:26:52;;;;;;;6.40;2.60;;;10.00;99.90;;;;;;5055155;28;20045;-44
2023/05/05 04:29:18;;;;;;;5.25;2.30;;;10.10;99.90;;;;;;5055377;28;20151;-44
2023/05/05 04:31:44;;;;;;;4.53;2.20;;;10.10;99.90;;;;;;5055135;28;20504;-45
2023/05/05 04:34:10;;;;;;;5.77;2.07;;;10.10;99.90;;;;;;5055238;28;20094;-44
2023/05/05 04:36:36;;;;;;;5.22;2.30;;;10.20;99.90;;;;;;5054170;28;20078;-48
2023/05/05 04:39:01;;;;;;;7.43;2.35;;;10.20;99.90;;;;;;5055147;28;20496;-44
2023/05/05 04:41:27;;;;;;;8.13;2.53;;;10.20;99.90;;;;;;5055160;28;20049;-44
2023/05/05 04:43:54;;;;;;;5.70;2.47;;;10.30;99.90;;;;;;5053334;28;20417;-44
2023/05/05 04:46:20;;;;;;;4.68;2.13;;;10.30;99.90;;;;;;5055163;28;20080;-45
2023/05/05 04:48:46;;;;;;;4.88;2.42;;;10.30;99.90;;;;;;5053657;28;20124;-44
2023/05/05 04:51:12;;;;;;;7.63;2.30;;;10.30;99.90;;;;;;5054822;28;20187;-45
2023/05/05 04:53:38;;;;;;;5.77;2.63;;;10.30;99.90;;;;;;5054865;28;20051;-45
2023/05/05 04:56:03;;;;;;;5.82;2.88;;;10.30;99.90;;;;;;5037374;28;20056;-45
2023/05/05 04:58:30;;;;;;;5.50;2.67;;;10.20;99.90;;;;;;5054693;28;20044;-44
2023/05/05 05:00:55;;;;;;;4.93;2.15;;;10.20;99.90;;;;;;5054654;28;20080;-45
2023/05/05 05:03:21;;;;;;;6.80;2.77;;;10.10;99.90;;;;;;5054500;28;20080;-45
2023/05/05 05:05:47;;;;;;;6.23;2.70;;;10.10;99.90;;;;;;5053421;28;20294;-46
2023/05/05 05:08:15;;;;;;;5.70;2.77;;;10.00;99.90;;;;;;5054225;28;20041;-45
2023/05/05 05:10:41;;;;;;;7.57;2.50;;;9.90;99.90;;;;;;5054733;28;20408;-44
2023/05/05 05:13:06;;;;;;;6.57;2.83;;;9.90;99.90;;;;;;5054524;28;20049;-44
2023/05/05 05:15:32;;;;;;;6.27;2.70;;;9.80;99.90;;;;;;5054511;28;20052;-45
2023/05/05 05:17:58;;;;;;;5.40;2.63;;;9.80;99.90;;;;;;5054410;28;20051;-46
2023/05/05 05:20:23;;;;;;;5.97;2.50;;;9.80;99.90;;;;;;5054354;28;20088;-45
2023/05/05 05:22:49;;;;;;;6.53;2.57;;;9.80;99.90;;;;;;5054092;28;20053;-45
2023/05/05 05:25:15;;;;;;;6.43;2.63;;;9.70;99.90;;;;;;5054301;28;20049;-44
2023/05/05 05:27:41;;;;;;;6.57;2.57;;;9.70;99.90;;;;;;5054068;28;20037;-45
2023/05/05 05:30:07;;;;;;;6.50;3.10;;;9.60;99.90;;;;;;5054273;28;20048;-45
2023/05/05 05:32:33;;;;;;;6.50;2.65;;;9.60;99.90;;;;;;5054312;28;20053;-46
2023/05/05 05:34:58;;;;;;;6.33;2.60;;;9.60;99.90;;;;;;5054026;28;20094;-45
2023/05/05 05:37:29;;;;;;;6.00;3.00;;;9.60;99.90;;;;;;5053931;28;20041;-46
2023/05/05 05:39:55;;;;;;;5.78;2.47;;;9.50;99.90;;;;;;5052781;28;20049;-46
2023/05/05 05:42:21;;;;;;;7.05;2.90;;;9.50;99.90;;;;;;5053843;28;20048;-45
2023/05/05 05:44:47;;;;;;;6.13;3.33;;;9.50;99.90;;;;;;5053686;28;20051;-46
2023/05/05 05:47:13;;;;;;;7.27;3.10;;;9.50;99.90;;;;;;5053935;28;20045;-45
2023/05/05 05:49:38;;;;;;;6.10;2.80;;;9.50;99.90;;;;;;5053683;28;20045;-45
2023/05/05 05:52:05;;;;;;;6.23;2.87;;;9.50;99.90;;;;;;5053810;28;20334;-45
2023/05/05 05:54:33;;;;;;;4.88;2.55;;;9.50;99.90;;;;;;5053744;28;20084;-46
2023/05/05 05:57:05;;;;;;;7.03;2.70;;;9.50;99.90;;;;;;5053399;28;20489;-46
2023/05/05 05:59:32;;;;;;;7.45;2.97;;;9.50;99.90;;;;;;5020816;28;20139;-46
2023/05/05 06:01:57;;;;;;;8.07;4.00;;;9.50;99.90;;;;;;5053646;28;20091;-46
2023/05/05 06:04:23;;;;;;;7.10;3.00;;;9.60;99.90;;;;;;5053651;28;20385;-45
2023/05/05 06:06:49;;;;;;;6.10;3.00;;;9.60;99.90;;;;;;5053547;28;20052;-46
2023/05/05 06:09:15;;;;;;;5.97;2.80;;;9.80;99.90;;;;;;5052314;28;20128;-45
2023/05/05 06:11:40;;;;;;;5.40;2.93;;;10.00;99.90;;;;;;5053375;28;20128;-46
2023/05/05 06:14:06;;;;;;;6.20;3.27;;;10.30;99.90;;;;;;5053359;28;20056;-45
2023/05/05 06:16:32;;;;;;;6.10;3.00;;;10.60;99.90;;;;;;5053215;28;20445;-45
2023/05/05 06:18:57;;;;;;;5.07;2.37;;;11.00;99.90;;;;;;5053333;28;20074;-45
2023/05/05 06:21:23;;;;;;;6.03;2.93;;;11.00;99.90;;;;;;5053407;28;20481;-45
2023/05/05 06:23:49;;;;;;;6.27;3.27;;;10.90;99.90;;;;;;5053486;28;20400;-45
2023/05/05 06:26:15;;;;;;;5.53;2.72;;;10.80;99.90;;;;;;5053343;28;20049;-45
2023/05/05 06:28:41;;;;;;;5.80;2.85;;;10.60;99.90;;;;;;5053141;28;20110;-45
2023/05/05 06:31:07;;;;;;;6.77;2.73;;;10.50;99.90;;;;;;5053324;28;20080;-45
2023/05/05 06:33:33;;;;;;;7.20;2.87;;;10.50;99.90;;;;;;5053220;28;20081;-45
2023/05/05 06:35:58;;;;;;;6.10;2.60;;;10.40;99.90;;;;;;5053296;28;20102;-46
2023/05/05 06:38:24;;;;;;;5.77;2.73;;;10.40;99.90;;;;;;5053069;28;20045;-46
2023/05/05 06:40:50;;;;;;;8.47;3.50;;;10.40;99.90;;;;;;5053333;28;20084;-45
2023/05/05 06:43:16;;;;;;;6.67;2.70;;;10.40;99.90;;;;;;5053288;28;20045;-46
2023/05/05 06:45:42;;;;;;;5.88;3.30;;;10.40;99.90;;;;;;5053216;28;20045;-46
2023/05/05 06:48:08;;;;;;;6.70;2.88;;;10.40;99.90;;;;;;5052985;28;20091;-45
2023/05/05 06:50:33;;;;;;;5.57;2.77;;;10.50;99.90;;;;;;5053168;28;20048;-45
2023/05/05 06:52:59;;;;;;;5.90;3.00;;;10.60;99.90;;;;;;5053196;28;20439;-45
2023/05/05 06:55:25;;;;;;;7.33;2.97;;;10.70;99.90;;;;;;5053185;28;20083;-45
2023/05/05 06:57:51;;;;;;;6.00;3.00;;;10.70;99.90;;;;;;5053412;28;20045;-45
2023/05/05 07:00:17;;;;;;;7.70;3.00;;;10.70;99.90;;;;;;5052957;28;20041;-45
2023/05/05 07:02:43;;;;;;;5.60;2.83;;;10.80;99.90;;;;;;5052756;28;20092;-45
2023/05/05 07:05:09;;;;;;;7.30;2.80;;;10.80;99.90;;;;;;5053357;28;20089;-44
2023/05/05 07:07:35;;;;;;;6.05;2.67;;;10.80;99.90;;;;;;5053760;28;20330;-45
2023/05/05 07:10:01;;;;;;;6.43;2.70;;;10.80;99.90;;;;;;5056472;28;20053;-45
2023/05/05 07:12:32;;;;;;;6.50;3.17;;;10.80;99.90;;;;;;5056876;28;20048;-46
2023/05/05 07:14:57;;;;;;;6.50;3.15;;;10.80;99.90;;;;;;5056526;28;20151;-45
2023/05/05 07:17:23;;;;;;;5.47;2.90;;;10.90;99.90;;;;;;5056638;28;20127;-45
2023/05/05 07:19:50;;;;;;;6.30;3.40;;;11.00;99.90;;;;;;5056776;28;20146;-45
2023/05/05 07:22:15;;;;;;;5.68;3.05;;;11.20;99.90;;;;;;5056541;28;20106;-46
2023/05/05 07:24:41;;;;;;;7.50;3.50;;;11.60;99.90;;;;;;5056658;28;20419;-46
2023/05/05 07:27:07;;;;;;;7.37;3.40;;;12.00;99.90;;;;;;5056377;28;20064;-46
2023/05/05 07:29:32;;;;;;;8.10;3.40;;;12.30;99.90;;;;;;5055415;28;20056;-45
2023/05/05 07:31:58;;;;;;;8.70;3.77;;;12.50;99.90;;;;;;5056142;28;20056;-45
2023/05/05 07:34:24;;;;;;;6.47;3.20;;;12.60;99.90;;;;;;5056271;28;20127;-46
2023/05/05 07:36:50;;;;;;;6.40;3.25;;;12.60;99.90;;;;;;5056174;28;20060;-44
2023/05/05 07:39:17;;;;;;;9.07;3.70;;;12.70;99.90;;;;;;5056301;28;20049;-46
2023/05/05 07:41:43;;;;;;;6.20;3.40;;;12.70;99.90;;;;;;5056012;28;20110;-46
2023/05/05 07:44:08;;;;;;;6.72;3.22;;;12.70;99.90;;;;;;5056049;28;20080;-45
2023/05/05 07:46:34;;;;;;;5.63;2.83;;;12.60;99.90;;;;;;5055918;28;20091;-45
2023/05/05 07:49:00;;;;;;;7.00;3.50;;;12.60;99.90;;;;;;5055772;28;20049;-45
2023/05/05 07:51:26;;;;;;;8.10;3.90;;;12.60;99.90;;;;;;5056011;28;20041;-45
2023/05/05 07:53:52;;;;;;;6.07;3.28;;;12.70;99.90;;;;;;5055001;28;20053;-45
2023/05/05 07:56:17;;;;;;;5.30;3.33;;;12.80;99.90;;;;;;5056073;28;20055;-45
2023/05/05 07:58:43;;;;;;;7.20;3.93;;;12.80;99.90;;;;;;5055700;28;20041;-45
2023/05/05 08:01:11;;;;;;;7.97;3.63;;;12.90;99.90;;;;;;5055620;28;20072;-44
2023/05/05 08:03:37;;;;;;;7.35;3.58;;;13.00;99.90;;;;;;5054411;28;20072;-45
2023/05/05 08:06:08;;;;;;;10.82;4.03;;;13.10;99.90;;;;;;5055700;28;20060;-45
2023/05/05 08:08:34;;;;;;;6.90;3.33;;;13.10;99.90;;;;;;5055567;28;20400;-45
2023/05/05 08:11:00;;;;;;;7.43;3.35;;;13.10;99.90;;;;;;5054504;28;20477;-45
2023/05/05 08:13:26;;;;;;;7.43;3.53;;;13.20;99.90;;;;;;5054567;28;20047;-45
2023/05/05 08:15:52;;;;;;;6.85;3.85;;;13.30;99.90;;;;;;5055302;28;20049;-45
2023/05/05 08:18:18;;;;;;;6.88;3.40;;;13.40;99.90;;;;;;5053882;28;20379;-45
2023/05/05 08:20:44;;;;;;;6.82;3.40;;;13.40;99.90;;;;;;5055278;28;20053;-45
2023/05/05 08:23:09;;;;;;;5.82;3.33;;;13.60;99.90;;;;;;5055463;28;20094;-45
2023/05/05 08:25:35;;;;;;;6.77;4.00;;;13.60;99.90;;;;;;5055319;28;20049;-45
2023/05/05 08:28:01;;;;;;;7.30;3.90;;;13.70;99.90;;;;;;5054120;28;20041;-45
2023/05/05 08:30:27;;;;;;;8.20;3.70;;;13.90;99.90;;;;;;5054082;28;20136;-46
2023/05/05 08:32:52;;;;;;;8.80;4.00;;;13.90;99.90;;;;;;5055291;28;20048;-46
2023/05/05 08:35:18;;;;;;;6.83;3.70;;;14.00;99.90;;;;;;5054278;28;20294;-46
2023/05/05 08:37:44;;;;;;;7.27;3.93;;;14.00;99.90;;;;;;5054109;28;20389;-46
2023/05/05 08:40:13;;;;;;;7.07;4.05;;;14.10;99.90;;;;;;5055034;28;20049;-45
2023/05/05 08:42:40;;;;;;;7.28;4.15;;;14.20;99.90;;;;;;5054933;28;20048;-45
2023/05/05 08:45:07;;;;;;;6.40;4.18;;;14.30;99.90;;;;;;5054921;28;20128;-48
2023/05/05 08:47:34;;;;;;;7.55;4.28;;;14.40;99.90;;;;;;5054902;28;20041;-49
2023/05/05 08:50:00;;;;;;;8.88;4.18;;;14.50;99.90;;;;;;5054928;28;20044;-48
2023/05/05 08:52:30;;;;;;;7.53;4.22;;;14.50;99.90;;;;;;5054710;28;20041;-49
2023/05/05 08:55:26;;;;;;;9.10;4.32;;;14.60;99.90;;;;;;5053880;28;20049;-48
2023/05/05 08:57:55;;;;;;;9.02;4.15;;;14.60;99.90;;;;;;5053840;28;20088;-49
2023/05/05 09:00:21;;;;;;;8.48;4.20;;;14.60;99.90;;;;;;5053573;28;20075;-48
2023/05/05 09:02:48;;;;;;;7.82;4.50;;;14.70;99.90;;;;;;5054445;28;20041;-52
2023/05/05 09:05:14;;;;;;;9.00;4.65;;;14.70;99.90;;;;;;5054429;28;20134;-48
2023/05/05 09:07:42;;;;;;;8.25;4.82;;;14.80;99.90;;;;;;5054533;28;20129;-45
2023/05/05 09:10:10;;;;;;;7.55;4.10;;;14.80;99.90;;;;;;5054264;28;20102;-47
2023/05/05 09:12:39;;;;;;;8.65;4.50;;;14.90;99.90;;;;;;5054455;28;20068;-46
2023/05/05 09:15:07;;;;;;;9.23;5.40;;;14.90;99.90;;;;;;5054330;28;20099;-45
2023/05/05 09:17:32;;;;;;;9.15;4.90;;;15.00;99.90;;;;;;5054475;28;20041;-45
2023/05/05 09:20:03;;;;;;;10.13;5.18;;;15.10;99.90;;;;;;5054269;28;20067;-46
2023/05/05 09:22:56;;;;;;;8.45;4.90;;;15.20;99.90;;;;;;5053149;28;20083;-45
2023/05/05 09:25:22;;;;;;;10.23;5.88;;;15.30;99.90;;;;;;5053441;28;20099;-45
2023/05/05 09:27:48;;;;;;;11.10;5.20;;;15.40;99.90;;;;;;5053993;28;20088;-44
2023/05/05 09:30:16;;;;;;;9.02;4.95;;;15.40;99.90;;;;;;5053919;28;20044;-45
2023/05/05 09:32:47;;;;;;;10.18;6.18;;;15.50;99.90;;;;;;5053958;28;20484;-45
2023/05/05 09:35:13;;;;;;;9.50;5.35;;;15.50;99.90;;;;;;5053073;28;20079;-45
2023/05/05 09:37:39;;;;;;;12.25;5.65;;;15.60;99.90;;;;;;5052810;28;20049;-44
2023/05/05 09:40:08;;;;;;;9.25;5.55;;;15.70;99.90;;;;;;5052729;28;20045;-45
2023/05/05 09:42:35;;;;;;;9.93;5.68;;;15.80;99.90;;;;;;5052785;28;20063;-45
2023/05/05 09:45:01;;;;;;;10.10;5.63;;;15.90;99.90;;;;;;5052688;28;20068;-45
2023/05/05 09:47:34;;;;;;;8.60;5.65;;;16.00;99.90;;;;;;5053600;28;20041;-45
2023/05/05 09:50:00;;;;;;;9.45;5.53;;;16.10;99.90;;;;;;5052971;28;20072;-45
2023/05/05 09:52:26;;;;;;;10.95;6.10;;;16.30;99.90;;;;;;5053683;28;20511;-45
2023/05/05 09:54:56;;;;;;;11.32;6.03;;;16.40;99.90;;;;;;5052799;28;20049;-44
2023/05/05 09:57:30;;;;;;;10.20;5.57;;;16.50;99.90;;;;;;5053720;28;20055;-45
2023/05/05 10:00:00;;;;;;;10.43;6.00;;;16.70;99.90;;;;;;5053462;28;20077;-45
2023/05/05 10:02:33;;;;;;;10.55;6.13;;;16.80;99.90;;;;;;5052717;28;20178;-45
2023/05/05 10:05:11;;;;;;;11.55;6.45;;;17.00;99.90;;;;;;5052080;28;20408;-45
2023/05/05 10:07:38;;;;;;;9.10;5.70;;;17.20;99.90;;;;;;5052403;28;20060;-45
2023/05/05 10:10:07;;;;;;;11.15;6.25;;;17.20;99.90;;;;;;5053461;28;20059;-45
2023/05/05 10:12:36;;;;;;;8.90;5.50;;;17.10;99.90;;;;;;5053440;28;20049;-45
2023/05/05 10:15:03;;;;;;;10.02;5.82;;;17.00;99.90;;;;;;5053570;28;20198;-46
2023/05/05 10:17:31;;;;;;;12.23;6.60;;;17.00;99.90;;;;;;5053608;28;20045;-45
2023/05/05 10:19:59;;;;;;;13.57;7.22;;;16.90;99.90;;;;;;5053564;28;20120;-45
2023/05/05 10:22:27;;;;;;;11.40;6.05;;;16.80;99.90;;;;;;5053672;28;20498;-46
2023/05/05 10:25:09;;;;;;;11.20;6.43;;;16.70;99.90;;;;;;5053295;28;20132;-46
2023/05/05 10:27:44;;;;;;;9.52;5.80;;;16.60;99.90;;;;;;5052309;28;20049;-45
2023/05/05 10:30:21;;;;;;;11.00;6.13;;;16.50;99.90;;;;;;5053394;28;20041;-45
2023/05/05 10:32:50;;;;;;;11.15;6.05;;;16.50;99.90;;;;;;5053426;28;20045;-45
2023/05/05 10:35:21;;;;;;;10.73;6.25;;;16.50;99.90;;;;;;5052254;28;20488;-45
2023/05/05 10:37:47;;;;;;;9.73;6.03;;;16.60;99.90;;;;;;5053160;28;20048;-45
2023/05/05 10:40:13;;;;;;;11.02;6.43;;;16.80;99.90;;;;;;5053650;28;20546;-45
2023/05/05 10:42:40;;;;;;;11.40;6.45;;;17.10;99.90;;;;;;5053864;28;20099;-45
2023/05/05 10:45:06;;;;;;;10.25;6.22;;;17.40;99.90;;;;;;5056008;28;20496;-45
2023/05/05 10:47:33;;;;;;;12.23;6.60;;;17.70;99.90;;;;;;5057151;28;20373;-45
2023/05/05 10:50:25;;;;;;;10.38;6.35;;;17.90;99.90;;;;;;5057151;28;20055;-45
2023/05/05 10:53:17;;;;;;;11.02;6.32;;;18.10;99.90;;;;;;5057174;28;20041;-45
2023/05/05 10:55:51;;;;;;;11.00;6.10;;;18.40;99.90;;;;;;5057210;28;20500;-45
2023/05/05 10:58:39;;;;;;;11.23;6.55;;;18.50;99.90;;;;;;5057068;28;20049;-45
2023/05/05 11:01:05;;;;;;;11.27;6.93;;;18.70;99.90;;;;;;5056952;28;20044;-45
2023/05/05 11:03:31;;;;;;;12.25;6.75;;;18.80;99.90;;;;;;5057053;28;20442;-45
2023/05/05 11:06:03;;;;;;;13.73;7.35;;;18.90;99.90;;;;;;5055572;28;20061;-44
2023/05/05 11:08:40;;;;;;;11.50;6.57;;;19.00;99.90;;;;;;5056690;28;20044;-45
2023/05/05 11:11:06;;;;;;;11.85;6.72;;;19.10;99.90;;;;;;5055594;28;20045;-45
2023/05/05 11:13:32;;;;;;;12.70;7.00;;;19.10;99.90;;;;;;5056508;28;20553;-45
2023/05/05 11:16:00;;;;;;;12.25;6.43;;;19.10;99.90;;;;;;5056469;28;20049;-45
2023/05/05 11:18:37;;;;;;;11.25;6.22;;;19.20;99.90;;;;;;5056543;28;20120;-45
2023/05/05 11:21:14;;;;;;;14.73;6.97;;;19.20;99.90;;;;;;5055660;28;20048;-45
2023/05/05 11:23:50;;;;;;;11.68;6.47;;;19.20;99.90;;;;;;5055344;28;20369;-45
2023/05/05 11:26:37;;;;;;;11.00;6.38;;;19.20;99.90;;;;;;5055461;28;20049;-45
2023/05/05 11:29:04;;;;;;;11.77;6.85;;;19.30;99.90;;;;;;5055999;28;20071;-45
2023/05/05 11:31:31;;;;;;;10.95;6.45;;;19.40;99.90;;;;;;5055078;28;20045;-45
2023/05/05 11:34:25;;;;;;;11.10;6.68;;;19.60;99.90;;;;;;5056158;28;20132;-46
2023/05/05 11:36:51;;;;;;;12.85;6.82;;;19.70;99.90;;;;;;5056351;28;20041;-47
2023/05/05 11:39:28;;;;;;;11.90;6.00;;;19.80;99.90;;;;;;5055008;28;20084;-47
2023/05/05 11:42:19;;;;;;;12.45;6.72;;;19.90;99.90;;;;;;5056209;28;20449;-46
2023/05/05 11:44:45;;;;;;;13.05;6.80;;;19.90;99.90;;;;;;5052022;28;20057;-48
2023/05/05 11:47:11;;;;;;;12.80;6.75;;;19.70;99.90;;;;;;5055083;28;20091;-46
2023/05/05 11:49:37;;;;;;;11.68;7.35;;;19.60;99.90;;;;;;5055964;28;20531;-47
2023/05/05 11:52:11;;;;;;;13.93;8.32;;;19.60;99.90;;;;;;5055948;28;20492;-49
2023/05/05 11:54:40;;;;;;;16.60;8.30;;;19.60;99.90;;;;;;5055664;28;20088;-46
2023/05/05 11:57:07;;;;;;;13.82;7.30;;;19.50;99.90;;;;;;5055679;28;20408;-48
2023/05/05 11:59:47;;;;;;;12.98;6.88;;;19.60;99.90;;;;;;5055847;28;20140;-48
2023/05/05 12:02:17;;;;;;;13.85;7.53;;;19.50;99.90;;;;;;5055780;28;20099;-46
2023/05/05 12:04:42;;;;;;;12.88;6.50;;;19.50;99.90;;;;;;5055885;28;20065;-46
2023/05/05 12:07:14;;;;;;;10.77;6.63;;;19.40;99.90;;;;;;5055629;28;20045;-45
2023/05/05 12:09:43;;;;;;;14.63;7.20;;;19.30;99.90;;;;;;5056218;28;20072;-45
2023/05/05 12:12:09;;;;;;;11.95;6.97;;;19.30;99.90;;;;;;5055584;28;20048;-45
2023/05/05 12:14:35;;;;;;;12.52;6.63;;;19.30;99.90;;;;;;5055597;28;20499;-45
2023/05/05 12:17:09;;;;;;;14.43;7.43;;;19.20;99.90;;;;;;5055600;28;20053;-47
2023/05/05 12:19:43;;;;;;;13.38;7.80;;;19.20;99.90;;;;;;5055412;28;20048;-45
2023/05/05 12:22:08;;;;;;;12.35;7.47;;;19.30;99.90;;;;;;5055440;28;20064;-46
2023/05/05 12:24:34;;;;;;;12.70;6.75;;;19.30;99.90;;;;;;5055453;28;20045;-45
2023/05/05 12:27:10;;;;;;;11.25;6.00;;;19.30;99.90;;;;;;5055287;28;20093;-45
2023/05/05 12:29:36;;;;;;;11.57;6.10;;;19.30;99.90;;;;;;5055208;28;20045;-45
2023/05/05 12:32:02;;;;;;;11.70;6.22;;;19.30;99.90;;;;;;5055189;28;20049;-45
2023/05/05 12:34:28;;;;;;;;;;;19.30;99.90;;;;;;5055543;28;20052;-45
2023/05/05 12:36:54;;;;;;;11.30;6.32;;;19.30;99.90;;;;;;5055217;28;19920;-45
2023/05/05 12:39:20;;;;;;;12.32;6.82;;;19.30;99.90;;;;;;5055276;28;20076;-46
2023/05/05 12:41:46;;;;;;;10.18;5.40;;;19.30;99.90;;;;;;5055053;28;20055;-45
2023/05/05 12:44:11;;;;;;;10.93;5.93;;;19.30;99.90;;;;;;5055081;28;20044;-45
2023/05/05 12:46:44;;;;;;;13.35;7.18;;;19.30;99.90;;;;;;5054840;28;20049;-45
2023/05/05 12:49:10;;;;;;;10.40;6.40;;;19.20;99.90;;;;;;5054777;28;20123;-45
2023/05/05 12:51:37;;;;;;;11.23;6.25;;;19.20;99.90;;;;;;5053810;28;20524;-46
2023/05/05 12:54:08;;;;;;;12.05;6.88;;;19.10;99.90;;;;;;5054801;28;20052;-45